aviador You're here:

LEVX Decoded Metar

VIGO in SPAIN
Report Time2018-06-25 11:30:00
UTC Time2018-06-25 11:44:40
Flight Rules lifr LIFR
Wind250° at 05 kt
W.Decomp.*RWY 20: 3.0 kt HW 4.0 kt RCW
W.Rank250° ranks 15
Current wind is below 250° avg. (6.6)
Visibility1500 m
Phenomena:Patches Fog
Clouds:Broken 004 Hf
Expected CloudBase > 400 ft AGL from Temp-Dew spread
Ceiling400 ft
Temp17°C (ISA +4)
Dew Point16°C (94% RH)
QNH1018 hPa
Density Alt1,348 ft
Elevation840 ft
Report Wrong Elevation
Raw Report
LEVX 251130Z 25005KT 210V320 3500 1500E BCFG BKN004 17/16 Q1018
NOSIG=

Extra information for LEVX:More info

Metar Taf Metar & Taf Last 4 Metars F.Rules Stats Wind Profile Meteogram Temp Stats Airport Information Weather charts Add Link Nearby VenuesMetar ALERT Operation Metar Decoded Social comments